sensor_id;sensor_type;location;lat;lon;timestamp;P1;durP1;ratioP1;P2;durP2;ratioP2
69594;SDS011;56800;52.142;5.364;2023-08-01T00:01:01;8.77;;;2.90;;
69594;SDS011;56800;52.142;5.364;2023-08-01T00:03:28;15.75;;;3.30;;
69594;SDS011;56800;52.142;5.364;2023-08-01T00:05:54;9.10;;;3.20;;
69594;SDS011;56800;52.142;5.364;2023-08-01T00:08:21;7.53;;;3.35;;
69594;SDS011;56800;52.142;5.364;2023-08-01T00:10:48;6.67;;;3.10;;
69594;SDS011;56800;52.142;5.364;2023-08-01T00:13:15;8.13;;;3.53;;
69594;SDS011;56800;52.142;5.364;2023-08-01T00:15:41;9.63;;;3.25;;
69594;SDS011;56800;52.142;5.364;2023-08-01T00:18:26;11.25;;;3.42;;
69594;SDS011;56800;52.142;5.364;2023-08-01T00:20:53;9.00;;;3.65;;
69594;SDS011;56800;52.142;5.364;2023-08-01T00:23:20;10.83;;;3.27;;
69594;SDS011;56800;52.142;5.364;2023-08-01T00:25:46;6.88;;;3.05;;
69594;SDS011;56800;52.142;5.364;2023-08-01T00:28:17;14.82;;;3.63;;
69594;SDS011;56800;52.142;5.364;2023-08-01T00:30:44;13.23;;;3.50;;
69594;SDS011;56800;52.142;5.364;2023-08-01T00:33:11;8.55;;;3.33;;
69594;SDS011;56800;52.142;5.364;2023-08-01T00:35:39;10.07;;;3.60;;
69594;SDS011;56800;52.142;5.364;2023-08-01T00:38:05;9.27;;;3.70;;
69594;SDS011;56800;52.142;5.364;2023-08-01T00:40:33;9.07;;;3.10;;
69594;SDS011;56800;52.142;5.364;2023-08-01T00:43:00;10.57;;;3.30;;
69594;SDS011;56800;52.142;5.364;2023-08-01T00:45:27;9.73;;;3.40;;
69594;SDS011;56800;52.142;5.364;2023-08-01T00:47:56;8.93;;;3.03;;
69594;SDS011;56800;52.142;5.364;2023-08-01T00:50:23;11.23;;;3.00;;
69594;SDS011;56800;52.142;5.364;2023-08-01T00:52:50;12.30;;;3.30;;
69594;SDS011;56800;52.142;5.364;2023-08-01T00:55:18;8.38;;;3.15;;
69594;SDS011;56800;52.142;5.364;2023-08-01T00:57:47;14.32;;;4.05;;
69594;SDS011;56800;52.142;5.364;2023-08-01T01:00:14;10.13;;;3.50;;
69594;SDS011;56800;52.142;5.364;2023-08-01T01:02:40;8.73;;;3.95;;
69594;SDS011;56800;52.142;5.364;2023-08-01T01:05:07;11.82;;;3.60;;
69594;SDS011;56800;52.142;5.364;2023-08-01T01:07:34;9.23;;;3.30;;
69594;SDS011;56800;52.142;5.364;2023-08-01T01:10:01;10.77;;;3.50;;
69594;SDS011;56800;52.142;5.364;2023-08-01T01:12:28;13.17;;;4.17;;
69594;SDS011;56800;52.142;5.364;2023-08-01T01:14:55;10.02;;;3.75;;
69594;SDS011;56800;52.142;5.364;2023-08-01T01:17:21;9.68;;;3.45;;
69594;SDS011;56800;52.142;5.364;2023-08-01T01:19:48;13.18;;;3.90;;
69594;SDS011;56800;52.142;5.364;2023-08-01T01:22:15;14.50;;;4.15;;
69594;SDS011;56800;52.142;5.364;2023-08-01T01:24:43;12.20;;;4.27;;
69594;SDS011;56800;52.142;5.364;2023-08-01T01:27:11;10.23;;;4.35;;
69594;SDS011;56800;52.142;5.364;2023-08-01T01:29:38;10.30;;;4.07;;
69594;SDS011;56800;52.142;5.364;2023-08-01T01:32:06;12.65;;;4.55;;
69594;SDS011;56800;52.142;5.364;2023-08-01T01:34:33;14.48;;;4.55;;
69594;SDS011;56800;52.142;5.364;2023-08-01T01:37:00;12.60;;;4.70;;
69594;SDS011;56800;52.142;5.364;2023-08-01T01:39:27;13.10;;;4.70;;
69594;SDS011;56800;52.142;5.364;2023-08-01T01:41:53;12.07;;;4.80;;
69594;SDS011;56800;52.142;5.364;2023-08-01T01:44:20;12.05;;;4.20;;
69594;SDS011;56800;52.142;5.364;2023-08-01T01:46:47;9.27;;;3.92;;
69594;SDS011;56800;52.142;5.364;2023-08-01T01:49:15;11.90;;;4.13;;
69594;SDS011;56800;52.142;5.364;2023-08-01T01:51:42;14.68;;;4.38;;
69594;SDS011;56800;52.142;5.364;2023-08-01T01:54:09;12.35;;;4.82;;
69594;SDS011;56800;52.142;5.364;2023-08-01T01:56:36;12.68;;;4.43;;
69594;SDS011;56800;52.142;5.364;2023-08-01T01:59:03;11.98;;;4.82;;
69594;SDS011;56800;52.142;5.364;2023-08-01T02:01:30;8.47;;;4.90;;
69594;SDS011;56800;52.142;5.364;2023-08-01T02:03:56;14.90;;;4.63;;
69594;SDS011;56800;52.142;5.364;2023-08-01T02:06:23;11.57;;;4.38;;
69594;SDS011;56800;52.142;5.364;2023-08-01T02:08:50;9.20;;;4.53;;
69594;SDS011;56800;52.142;5.364;2023-08-01T02:11:16;11.27;;;4.55;;
69594;SDS011;56800;52.142;5.364;2023-08-01T02:13:43;21.53;;;4.20;;
69594;SDS011;56800;52.142;5.364;2023-08-01T02:16:10;11.48;;;4.22;;
69594;SDS011;56800;52.142;5.364;2023-08-01T02:18:37;11.00;;;4.32;;
69594;SDS011;56800;52.142;5.364;2023-08-01T02:21:03;17.92;;;4.90;;
69594;SDS011;56800;52.142;5.364;2023-08-01T02:23:30;15.70;;;4.60;;
69594;SDS011;56800;52.142;5.364;2023-08-01T02:25:58;11.83;;;4.70;;
69594;SDS011;56800;52.142;5.364;2023-08-01T02:28:25;12.52;;;4.57;;
69594;SDS011;56800;52.142;5.364;2023-08-01T02:30:52;17.50;;;5.32;;
69594;SDS011;56800;52.142;5.364;2023-08-01T02:33:19;14.48;;;4.80;;
69594;SDS011;56800;52.142;5.364;2023-08-01T02:35:46;15.25;;;5.07;;
69594;SDS011;56800;52.142;5.364;2023-08-01T02:38:14;12.53;;;5.07;;
69594;SDS011;56800;52.142;5.364;2023-08-01T02:40:40;14.93;;;4.78;;
69594;SDS011;56800;52.142;5.364;2023-08-01T02:43:07;12.27;;;4.57;;
69594;SDS011;56800;52.142;5.364;2023-08-01T02:45:34;17.92;;;4.32;;
69594;SDS011;56800;52.142;5.364;2023-08-01T02:48:00;13.93;;;4.03;;
69594;SDS011;56800;52.142;5.364;2023-08-01T02:50:27;10.40;;;3.57;;
69594;SDS011;56800;52.142;5.364;2023-08-01T02:52:54;10.15;;;3.55;;
69594;SDS011;56800;52.142;5.364;2023-08-01T02:55:21;12.57;;;4.25;;
69594;SDS011;56800;52.142;5.364;2023-08-01T02:57:47;14.15;;;4.03;;
69594;SDS011;56800;52.142;5.364;2023-08-01T03:00:14;20.85;;;4.07;;
69594;SDS011;56800;52.142;5.364;2023-08-01T03:02:45;18.17;;;4.10;;
69594;SDS011;56800;52.142;5.364;2023-08-01T03:05:12;13.98;;;4.18;;
69594;SDS011;56800;52.142;5.364;2023-08-01T03:07:38;10.32;;;3.42;;
69594;SDS011;56800;52.142;5.364;2023-08-01T03:10:05;10.02;;;3.03;;
69594;SDS011;56800;52.142;5.364;2023-08-01T03:12:34;10.77;;;3.20;;
69594;SDS011;56800;52.142;5.364;2023-08-01T03:15:01;10.33;;;3.37;;
69594;SDS011;56800;52.142;5.364;2023-08-01T03:17:27;11.52;;;3.50;;
69594;SDS011;56800;52.142;5.364;2023-08-01T03:19:54;14.05;;;3.88;;
69594;SDS011;56800;52.142;5.364;2023-08-01T03:22:21;15.45;;;3.63;;
69594;SDS011;56800;52.142;5.364;2023-08-01T03:24:48;8.68;;;3.45;;
69594;SDS011;56800;52.142;5.364;2023-08-01T03:27:15;19.03;;;4.43;;
69594;SDS011;56800;52.142;5.364;2023-08-01T03:29:41;12.90;;;4.47;;
69594;SDS011;56800;52.142;5.364;2023-08-01T03:32:08;12.90;;;4.30;;
69594;SDS011;56800;52.142;5.364;2023-08-01T03:34:35;12.75;;;4.25;;
69594;SDS011;56800;52.142;5.364;2023-08-01T03:37:02;12.75;;;4.10;;
69594;SDS011;56800;52.142;5.364;2023-08-01T03:39:30;14.47;;;4.10;;
69594;SDS011;56800;52.142;5.364;2023-08-01T03:41:56;14.65;;;4.57;;
69594;SDS011;56800;52.142;5.364;2023-08-01T03:44:23;15.18;;;4.88;;
69594;SDS011;56800;52.142;5.364;2023-08-01T03:46:50;10.07;;;3.83;;
69594;SDS011;56800;52.142;5.364;2023-08-01T03:49:16;10.93;;;4.32;;
69594;SDS011;56800;52.142;5.364;2023-08-01T03:51:44;16.10;;;4.77;;
69594;SDS011;56800;52.142;5.364;2023-08-01T03:54:11;13.00;;;5.25;;
69594;SDS011;56800;52.142;5.364;2023-08-01T03:56:39;20.20;;;5.45;;
69594;SDS011;56800;52.142;5.364;2023-08-01T03:59:10;14.93;;;5.05;;
69594;SDS011;56800;52.142;5.364;2023-08-01T04:01:41;11.77;;;4.65;;
69594;SDS011;56800;52.142;5.364;2023-08-01T04:04:08;13.90;;;4.77;;
69594;SDS011;56800;52.142;5.364;2023-08-01T04:06:36;16.85;;;5.07;;
69594;SDS011;56800;52.142;5.364;2023-08-01T04:09:03;14.80;;;4.97;;
69594;SDS011;56800;52.142;5.364;2023-08-01T04:11:30;11.00;;;4.60;;
69594;SDS011;56800;52.142;5.364;2023-08-01T04:13:57;16.52;;;5.13;;
69594;SDS011;56800;52.142;5.364;2023-08-01T04:16:23;14.20;;;4.53;;
69594;SDS011;56800;52.142;5.364;2023-08-01T04:18:50;15.48;;;4.53;;
69594;SDS011;56800;52.142;5.364;2023-08-01T04:21:17;14.02;;;5.30;;
69594;SDS011;56800;52.142;5.364;2023-08-01T04:23:44;20.20;;;5.15;;
69594;SDS011;56800;52.142;5.364;2023-08-01T04:26:11;19.95;;;4.72;;
69594;SDS011;56800;52.142;5.364;2023-08-01T04:28:38;15.33;;;4.87;;
69594;SDS011;56800;52.142;5.364;2023-08-01T04:31:05;18.63;;;4.63;;
69594;SDS011;56800;52.142;5.364;2023-08-01T04:33:32;17.67;;;4.95;;
69594;SDS011;56800;52.142;5.364;2023-08-01T04:35:58;13.13;;;5.07;;
69594;SDS011;56800;52.142;5.364;2023-08-01T04:38:25;14.13;;;5.13;;
69594;SDS011;56800;52.142;5.364;2023-08-01T04:40:52;15.20;;;5.40;;
69594;SDS011;56800;52.142;5.364;2023-08-01T04:43:19;16.92;;;4.97;;
69594;SDS011;56800;52.142;5.364;2023-08-01T04:45:45;19.38;;;6.00;;
69594;SDS011;56800;52.142;5.364;2023-08-01T04:48:12;16.60;;;5.47;;
69594;SDS011;56800;52.142;5.364;2023-08-01T04:50:39;23.17;;;5.40;;
69594;SDS011;56800;52.142;5.364;2023-08-01T04:53:06;19.83;;;5.50;;
69594;SDS011;56800;52.142;5.364;2023-08-01T04:55:32;16.50;;;5.68;;
69594;SDS011;56800;52.142;5.364;2023-08-01T04:57:59;18.00;;;5.85;;
69594;SDS011;56800;52.142;5.364;2023-08-01T05:00:26;20.10;;;5.88;;
69594;SDS011;56800;52.142;5.364;2023-08-01T05:02:52;24.88;;;5.85;;
69594;SDS011;56800;52.142;5.364;2023-08-01T05:05:19;20.60;;;6.17;;
69594;SDS011;56800;52.142;5.364;2023-08-01T05:07:46;19.70;;;6.10;;
69594;SDS011;56800;52.142;5.364;2023-08-01T05:10:13;17.88;;;5.85;;
69594;SDS011;56800;52.142;5.364;2023-08-01T05:12:42;22.50;;;5.60;;
69594;SDS011;56800;52.142;5.364;2023-08-01T05:15:09;20.08;;;6.18;;
69594;SDS011;56800;52.142;5.364;2023-08-01T05:17:36;16.67;;;5.70;;
69594;SDS011;56800;52.142;5.364;2023-08-01T05:20:03;18.83;;;6.15;;
69594;SDS011;56800;52.142;5.364;2023-08-01T05:22:30;26.42;;;6.68;;
69594;SDS011;56800;52.142;5.364;2023-08-01T05:24:57;25.63;;;6.93;;
69594;SDS011;56800;52.142;5.364;2023-08-01T05:27:24;22.20;;;5.57;;
69594;SDS011;56800;52.142;5.364;2023-08-01T05:29:51;21.43;;;5.47;;
69594;SDS011;56800;52.142;5.364;2023-08-01T05:32:18;22.10;;;5.65;;
69594;SDS011;56800;52.142;5.364;2023-08-01T05:34:45;20.83;;;5.90;;
69594;SDS011;56800;52.142;5.364;2023-08-01T05:37:12;16.02;;;5.72;;
69594;SDS011;56800;52.142;5.364;2023-08-01T05:39:38;20.95;;;5.47;;
69594;SDS011;56800;52.142;5.364;2023-08-01T05:42:05;26.70;;;5.83;;
69594;SDS011;56800;52.142;5.364;2023-08-01T05:44:34;22.27;;;5.43;;
69594;SDS011;56800;52.142;5.364;2023-08-01T05:47:01;16.55;;;4.70;;
69594;SDS011;56800;52.142;5.364;2023-08-01T05:49:28;19.52;;;5.68;;
69594;SDS011;56800;52.142;5.364;2023-08-01T05:51:56;18.08;;;5.03;;
69594;SDS011;56800;52.142;5.364;2023-08-01T05:54:23;18.00;;;5.57;;
69594;SDS011;56800;52.142;5.364;2023-08-01T05:56:49;16.35;;;4.03;;
69594;SDS011;56800;52.142;5.364;2023-08-01T05:59:16;21.95;;;5.10;;
69594;SDS011;56800;52.142;5.364;2023-08-01T06:01:43;18.10;;;4.97;;
69594;SDS011;56800;52.142;5.364;2023-08-01T06:04:10;19.38;;;4.80;;
69594;SDS011;56800;52.142;5.364;2023-08-01T06:06:37;18.87;;;5.10;;
69594;SDS011;56800;52.142;5.364;2023-08-01T06:09:04;17.05;;;5.22;;
69594;SDS011;56800;52.142;5.364;2023-08-01T06:11:31;16.65;;;4.82;;
69594;SDS011;56800;52.142;5.364;2023-08-01T06:13:59;16.42;;;4.65;;
69594;SDS011;56800;52.142;5.364;2023-08-01T06:16:27;24.83;;;4.70;;
69594;SDS011;56800;52.142;5.364;2023-08-01T06:18:53;14.97;;;5.13;;
69594;SDS011;56800;52.142;5.364;2023-08-01T06:21:20;18.90;;;4.40;;
69594;SDS011;56800;52.142;5.364;2023-08-01T06:23:47;24.05;;;5.20;;
69594;SDS011;56800;52.142;5.364;2023-08-01T06:26:14;13.27;;;4.00;;
69594;SDS011;56800;52.142;5.364;2023-08-01T06:28:41;12.95;;;4.00;;
69594;SDS011;56800;52.142;5.364;2023-08-01T06:31:08;18.17;;;4.33;;
69594;SDS011;56800;52.142;5.364;2023-08-01T06:33:35;13.80;;;4.40;;
69594;SDS011;56800;52.142;5.364;2023-08-01T06:36:02;19.88;;;4.43;;
69594;SDS011;56800;52.142;5.364;2023-08-01T06:38:30;13.50;;;4.28;;
69594;SDS011;56800;52.142;5.364;2023-08-01T06:40:57;14.00;;;4.22;;
69594;SDS011;56800;52.142;5.364;2023-08-01T06:43:24;12.57;;;3.77;;
69594;SDS011;56800;52.142;5.364;2023-08-01T06:45:50;13.18;;;3.70;;
69594;SDS011;56800;52.142;5.364;2023-08-01T06:48:17;13.05;;;4.03;;
69594;SDS011;56800;52.142;5.364;2023-08-01T06:50:44;11.63;;;3.72;;
69594;SDS011;56800;52.142;5.364;2023-08-01T06:53:11;17.95;;;4.13;;
69594;SDS011;56800;52.142;5.364;2023-08-01T06:55:37;15.30;;;4.40;;
69594;SDS011;56800;52.142;5.364;2023-08-01T06:58:04;15.27;;;3.63;;
69594;SDS011;56800;52.142;5.364;2023-08-01T07:00:31;14.93;;;4.43;;
69594;SDS011;56800;52.142;5.364;2023-08-01T07:02:58;10.48;;;3.90;;
69594;SDS011;56800;52.142;5.364;2023-08-01T07:05:25;17.10;;;4.22;;
69594;SDS011;56800;52.142;5.364;2023-08-01T07:07:52;13.17;;;4.23;;
69594;SDS011;56800;52.142;5.364;2023-08-01T07:10:18;15.48;;;4.30;;
69594;SDS011;56800;52.142;5.364;2023-08-01T07:12:46;20.38;;;4.78;;
69594;SDS011;56800;52.142;5.364;2023-08-01T07:15:13;15.88;;;3.60;;
69594;SDS011;56800;52.142;5.364;2023-08-01T07:17:40;11.95;;;3.60;;
69594;SDS011;56800;52.142;5.364;2023-08-01T07:20:07;14.70;;;4.07;;
69594;SDS011;56800;52.142;5.364;2023-08-01T07:22:34;13.48;;;3.70;;
69594;SDS011;56800;52.142;5.364;2023-08-01T07:25:01;12.18;;;3.38;;
69594;SDS011;56800;52.142;5.364;2023-08-01T07:27:28;11.50;;;2.97;;
69594;SDS011;56800;52.142;5.364;2023-08-01T07:29:54;14.45;;;3.28;;
69594;SDS011;56800;52.142;5.364;2023-08-01T07:32:21;11.33;;;3.47;;
69594;SDS011;56800;52.142;5.364;2023-08-01T07:34:48;12.15;;;3.35;;
69594;SDS011;56800;52.142;5.364;2023-08-01T07:37:14;15.10;;;3.47;;
69594;SDS011;56800;52.142;5.364;2023-08-01T07:39:41;12.55;;;3.58;;
69594;SDS011;56800;52.142;5.364;2023-08-01T07:42:08;13.80;;;3.78;;
69594;SDS011;56800;52.142;5.364;2023-08-01T07:44:34;10.57;;;3.53;;
69594;SDS011;56800;52.142;5.364;2023-08-01T07:47:01;11.40;;;4.32;;
69594;SDS011;56800;52.142;5.364;2023-08-01T07:49:28;12.90;;;3.70;;
69594;SDS011;56800;52.142;5.364;2023-08-01T07:51:55;15.88;;;3.50;;
69594;SDS011;56800;52.142;5.364;2023-08-01T07:54:21;14.60;;;3.92;;
69594;SDS011;56800;52.142;5.364;2023-08-01T07:56:50;8.23;;;3.10;;
69594;SDS011;56800;52.142;5.364;2023-08-01T07:59:17;10.30;;;3.47;;
69594;SDS011;56800;52.142;5.364;2023-08-01T08:01:43;9.48;;;3.35;;
69594;SDS011;56800;52.142;5.364;2023-08-01T08:04:10;16.60;;;3.42;;
69594;SDS011;56800;52.142;5.364;2023-08-01T08:06:37;12.98;;;3.45;;
69594;SDS011;56800;52.142;5.364;2023-08-01T08:09:05;10.97;;;3.50;;
69594;SDS011;56800;52.142;5.364;2023-08-01T08:11:31;10.55;;;3.17;;
69594;SDS011;56800;52.142;5.364;2023-08-01T08:13:59;10.05;;;3.20;;
69594;SDS011;56800;52.142;5.364;2023-08-01T08:16:26;13.32;;;3.38;;
69594;SDS011;56800;52.142;5.364;2023-08-01T08:18:53;9.50;;;3.20;;
69594;SDS011;56800;52.142;5.364;2023-08-01T08:21:19;12.20;;;3.35;;
69594;SDS011;56800;52.142;5.364;2023-08-01T08:23:46;15.15;;;3.70;;
69594;SDS011;56800;52.142;5.364;2023-08-01T08:26:13;13.65;;;3.85;;
69594;SDS011;56800;52.142;5.364;2023-08-01T08:28:40;13.53;;;2.97;;
69594;SDS011;56800;52.142;5.364;2023-08-01T08:31:08;12.98;;;2.95;;
69594;SDS011;56800;52.142;5.364;2023-08-01T08:33:35;11.35;;;2.72;;
69594;SDS011;56800;52.142;5.364;2023-08-01T08:36:01;8.35;;;2.50;;
69594;SDS011;56800;52.142;5.364;2023-08-01T08:38:28;7.85;;;2.17;;
69594;SDS011;56800;52.142;5.364;2023-08-01T08:41:19;9.57;;;2.73;;
69594;SDS011;56800;52.142;5.364;2023-08-01T08:43:53;10.70;;;2.83;;
69594;SDS011;56800;52.142;5.364;2023-08-01T08:46:26;7.40;;;2.70;;
69594;SDS011;56800;52.142;5.364;2023-08-01T08:48:56;11.90;;;2.58;;
69594;SDS011;56800;52.142;5.364;2023-08-01T08:51:23;10.77;;;2.90;;
69594;SDS011;56800;52.142;5.364;2023-08-01T08:53:53;9.17;;;2.63;;
69594;SDS011;56800;52.142;5.364;2023-08-01T08:56:23;8.80;;;2.72;;
69594;SDS011;56800;52.142;5.364;2023-08-01T08:58:50;12.95;;;3.05;;
69594;SDS011;56800;52.142;5.364;2023-08-01T09:01:18;9.30;;;2.38;;
69594;SDS011;56800;52.142;5.364;2023-08-01T09:03:45;10.52;;;2.92;;
69594;SDS011;56800;52.142;5.364;2023-08-01T09:06:15;11.13;;;3.07;;
69594;SDS011;56800;52.142;5.364;2023-08-01T09:08:46;10.75;;;2.90;;
69594;SDS011;56800;52.142;5.364;2023-08-01T09:11:41;8.18;;;2.25;;
69594;SDS011;56800;52.142;5.364;2023-08-01T09:14:10;11.82;;;2.55;;
69594;SDS011;56800;52.142;5.364;2023-08-01T09:16:37;12.95;;;3.17;;
69594;SDS011;56800;52.142;5.364;2023-08-01T09:19:06;12.10;;;3.03;;
69594;SDS011;56800;52.142;5.364;2023-08-01T09:21:34;15.77;;;2.60;;
69594;SDS011;56800;52.142;5.364;2023-08-01T09:24:10;11.93;;;3.03;;
69594;SDS011;56800;52.142;5.364;2023-08-01T09:26:41;9.45;;;2.70;;
69594;SDS011;56800;52.142;5.364;2023-08-01T09:29:09;9.13;;;2.55;;
69594;SDS011;56800;52.142;5.364;2023-08-01T09:31:37;12.00;;;2.80;;
69594;SDS011;56800;52.142;5.364;2023-08-01T09:36:50;9.95;;;2.88;;
69594;SDS011;56800;52.142;5.364;2023-08-01T09:39:23;13.98;;;3.08;;
69594;SDS011;56800;52.142;5.364;2023-08-01T09:41:56;10.75;;;2.83;;
69594;SDS011;56800;52.142;5.364;2023-08-01T09:44:28;9.83;;;2.90;;
69594;SDS011;56800;52.142;5.364;2023-08-01T09:47:13;10.52;;;2.80;;
69594;SDS011;56800;52.142;5.364;2023-08-01T09:49:49;7.93;;;2.65;;
69594;SDS011;56800;52.142;5.364;2023-08-01T09:52:25;11.80;;;3.20;;
69594;SDS011;56800;52.142;5.364;2023-08-01T09:54:53;12.82;;;3.25;;
69594;SDS011;56800;52.142;5.364;2023-08-01T09:57:20;8.43;;;2.93;;
69594;SDS011;56800;52.142;5.364;2023-08-01T09:59:48;10.77;;;2.70;;
69594;SDS011;56800;52.142;5.364;2023-08-01T10:02:16;9.80;;;3.03;;
69594;SDS011;56800;52.142;5.364;2023-08-01T10:04:48;11.68;;;3.00;;
69594;SDS011;56800;52.142;5.364;2023-08-01T10:07:17;9.82;;;3.20;;
69594;SDS011;56800;52.142;5.364;2023-08-01T10:09:49;13.50;;;3.20;;
69594;SDS011;56800;52.142;5.364;2023-08-01T10:12:18;11.93;;;2.92;;
69594;SDS011;56800;52.142;5.364;2023-08-01T10:14:45;12.57;;;3.00;;
69594;SDS011;56800;52.142;5.364;2023-08-01T10:17:12;7.28;;;2.10;;
69594;SDS011;56800;52.142;5.364;2023-08-01T10:19:40;10.98;;;2.65;;
69594;SDS011;56800;52.142;5.364;2023-08-01T10:22:08;7.33;;;2.73;;
69594;SDS011;56800;52.142;5.364;2023-08-01T10:24:36;7.10;;;2.28;;
69594;SDS011;56800;52.142;5.364;2023-08-01T10:27:13;8.45;;;2.85;;
69594;SDS011;56800;52.142;5.364;2023-08-01T10:29:42;11.02;;;2.33;;
69594;SDS011;56800;52.142;5.364;2023-08-01T10:32:09;9.55;;;2.72;;
69594;SDS011;56800;52.142;5.364;2023-08-01T10:34:36;9.90;;;2.67;;
69594;SDS011;56800;52.142;5.364;2023-08-01T10:37:03;10.48;;;2.63;;
69594;SDS011;56800;52.142;5.364;2023-08-01T10:39:30;11.55;;;3.15;;
69594;SDS011;56800;52.142;5.364;2023-08-01T10:42:01;11.30;;;2.90;;
69594;SDS011;56800;52.142;5.364;2023-08-01T10:44:29;7.55;;;2.28;;
69594;SDS011;56800;52.142;5.364;2023-08-01T10:46:59;7.70;;;2.63;;
69594;SDS011;56800;52.142;5.364;2023-08-01T10:52:17;7.97;;;2.17;;
69594;SDS011;56800;52.142;5.364;2023-08-01T10:54:44;7.85;;;2.13;;
69594;SDS011;56800;52.142;5.364;2023-08-01T10:57:18;7.60;;;2.00;;
69594;SDS011;56800;52.142;5.364;2023-08-01T10:59:45;6.27;;;2.30;;
69594;SDS011;56800;52.142;5.364;2023-08-01T11:02:19;4.55;;;1.80;;
69594;SDS011;56800;52.142;5.364;2023-08-01T11:04:59;7.93;;;2.40;;
69594;SDS011;56800;52.142;5.364;2023-08-01T11:07:27;7.53;;;2.45;;
69594;SDS011;56800;52.142;5.364;2023-08-01T11:12:35;6.70;;;2.50;;
69594;SDS011;56800;52.142;5.364;2023-08-01T11:15:05;8.68;;;2.47;;
69594;SDS011;56800;52.142;5.364;2023-08-01T11:17:37;8.43;;;2.67;;
69594;SDS011;56800;52.142;5.364;2023-08-01T11:20:05;9.68;;;2.60;;
69594;SDS011;56800;52.142;5.364;2023-08-01T11:22:34;13.02;;;2.90;;
69594;SDS011;56800;52.142;5.364;2023-08-01T11:25:02;8.23;;;2.50;;
69594;SDS011;56800;52.142;5.364;2023-08-01T11:27:29;9.13;;;2.72;;
69594;SDS011;56800;52.142;5.364;2023-08-01T11:29:56;8.25;;;2.70;;
69594;SDS011;56800;52.142;5.364;2023-08-01T11:32:32;6.78;;;2.55;;
69594;SDS011;56800;52.142;5.364;2023-08-01T11:35:01;6.25;;;2.25;;
69594;SDS011;56800;52.142;5.364;2023-08-01T11:37:28;8.87;;;2.80;;
69594;SDS011;56800;52.142;5.364;2023-08-01T11:39:56;8.50;;;2.58;;
69594;SDS011;56800;52.142;5.364;2023-08-01T11:42:24;7.65;;;2.65;;
69594;SDS011;56800;52.142;5.364;2023-08-01T11:45:06;8.27;;;2.67;;
69594;SDS011;56800;52.142;5.364;2023-08-01T11:47:38;8.38;;;2.88;;
69594;SDS011;56800;52.142;5.364;2023-08-01T11:50:11;8.23;;;2.40;;
69594;SDS011;56800;52.142;5.364;2023-08-01T11:52:38;9.68;;;2.20;;
69594;SDS011;56800;52.142;5.364;2023-08-01T11:55:05;16.10;;;3.28;;
69594;SDS011;56800;52.142;5.364;2023-08-01T11:57:33;9.88;;;3.17;;
69594;SDS011;56800;52.142;5.364;2023-08-01T11:59:59;9.30;;;3.15;;
69594;SDS011;56800;52.142;5.364;2023-08-01T12:02:27;12.67;;;2.50;;
69594;SDS011;56800;52.142;5.364;2023-08-01T12:04:56;6.50;;;2.22;;
69594;SDS011;56800;52.142;5.364;2023-08-01T12:07:26;8.38;;;2.78;;
69594;SDS011;56800;52.142;5.364;2023-08-01T12:09:56;10.52;;;2.90;;
69594;SDS011;56800;52.142;5.364;2023-08-01T12:12:27;9.55;;;2.38;;
69594;SDS011;56800;52.142;5.364;2023-08-01T12:14:54;11.63;;;2.77;;
69594;SDS011;56800;52.142;5.364;2023-08-01T12:17:22;13.50;;;2.75;;
69594;SDS011;56800;52.142;5.364;2023-08-01T12:19:49;9.57;;;2.50;;
69594;SDS011;56800;52.142;5.364;2023-08-01T12:22:16;10.10;;;3.00;;
69594;SDS011;56800;52.142;5.364;2023-08-01T12:24:42;10.43;;;3.47;;
69594;SDS011;56800;52.142;5.364;2023-08-01T12:27:09;11.03;;;3.13;;
69594;SDS011;56800;52.142;5.364;2023-08-01T12:29:36;14.63;;;2.85;;
69594;SDS011;56800;52.142;5.364;2023-08-01T12:32:03;12.00;;;3.13;;
69594;SDS011;56800;52.142;5.364;2023-08-01T12:34:30;11.05;;;3.00;;
69594;SDS011;56800;52.142;5.364;2023-08-01T12:36:57;10.15;;;2.70;;
69594;SDS011;56800;52.142;5.364;2023-08-01T12:39:24;8.27;;;2.40;;
69594;SDS011;56800;52.142;5.364;2023-08-01T12:41:53;8.88;;;2.53;;
69594;SDS011;56800;52.142;5.364;2023-08-01T12:44:20;9.68;;;3.15;;
69594;SDS011;56800;52.142;5.364;2023-08-01T12:46:47;12.55;;;2.70;;
69594;SDS011;56800;52.142;5.364;2023-08-01T12:49:14;8.27;;;2.45;;
69594;SDS011;56800;52.142;5.364;2023-08-01T12:51:41;10.00;;;2.80;;
69594;SDS011;56800;52.142;5.364;2023-08-01T12:54:07;8.23;;;2.47;;
69594;SDS011;56800;52.142;5.364;2023-08-01T12:56:34;9.15;;;2.47;;
69594;SDS011;56800;52.142;5.364;2023-08-01T12:59:01;9.48;;;2.58;;
69594;SDS011;56800;52.142;5.364;2023-08-01T13:01:28;7.47;;;2.08;;
69594;SDS011;56800;52.142;5.364;2023-08-01T13:03:54;6.00;;;1.80;;
69594;SDS011;56800;52.142;5.364;2023-08-01T13:06:21;4.65;;;2.03;;
69594;SDS011;56800;52.142;5.364;2023-08-01T13:08:48;5.47;;;2.65;;
69594;SDS011;56800;52.142;5.364;2023-08-01T13:11:15;8.73;;;2.72;;
69594;SDS011;56800;52.142;5.364;2023-08-01T13:13:41;8.18;;;2.60;;
69594;SDS011;56800;52.142;5.364;2023-08-01T13:16:09;10.27;;;2.60;;
69594;SDS011;56800;52.142;5.364;2023-08-01T13:18:35;10.43;;;2.38;;
69594;SDS011;56800;52.142;5.364;2023-08-01T13:21:09;12.15;;;2.70;;
69594;SDS011;56800;52.142;5.364;2023-08-01T13:23:37;11.77;;;2.70;;
69594;SDS011;56800;52.142;5.364;2023-08-01T13:26:03;9.15;;;2.80;;
69594;SDS011;56800;52.142;5.364;2023-08-01T13:28:30;12.60;;;2.53;;
69594;SDS011;56800;52.142;5.364;2023-08-01T13:30:57;9.10;;;2.65;;
69594;SDS011;56800;52.142;5.364;2023-08-01T13:33:24;8.27;;;2.70;;
69594;SDS011;56800;52.142;5.364;2023-08-01T13:35:51;9.77;;;2.42;;
69594;SDS011;56800;52.142;5.364;2023-08-01T13:38:19;10.70;;;2.88;;
69594;SDS011;56800;52.142;5.364;2023-08-01T13:40:46;9.20;;;2.90;;
69594;SDS011;56800;52.142;5.364;2023-08-01T13:43:13;8.80;;;2.60;;
69594;SDS011;56800;52.142;5.364;2023-08-01T13:45:40;8.15;;;2.53;;
69594;SDS011;56800;52.142;5.364;2023-08-01T13:48:07;11.55;;;2.50;;
69594;SDS011;56800;52.142;5.364;2023-08-01T13:50:34;9.20;;;2.40;;
69594;SDS011;56800;52.142;5.364;2023-08-01T13:53:01;7.67;;;2.43;;
69594;SDS011;56800;52.142;5.364;2023-08-01T13:55:27;10.25;;;2.70;;
69594;SDS011;56800;52.142;5.364;2023-08-01T13:57:54;9.07;;;2.22;;
69594;SDS011;56800;52.142;5.364;2023-08-01T14:00:21;7.57;;;2.40;;
69594;SDS011;56800;52.142;5.364;2023-08-01T14:02:51;8.35;;;2.58;;
69594;SDS011;56800;52.142;5.364;2023-08-01T14:05:18;6.53;;;2.13;;
69594;SDS011;56800;52.142;5.364;2023-08-01T14:07:45;7.10;;;2.70;;
69594;SDS011;56800;52.142;5.364;2023-08-01T14:10:12;9.73;;;2.70;;
69594;SDS011;56800;52.142;5.364;2023-08-01T14:12:41;12.15;;;3.00;;
69594;SDS011;56800;52.142;5.364;2023-08-01T14:15:07;9.80;;;2.70;;
69594;SDS011;56800;52.142;5.364;2023-08-01T14:17:35;9.83;;;2.63;;
69594;SDS011;56800;52.142;5.364;2023-08-01T14:20:02;8.52;;;2.55;;
69594;SDS011;56800;52.142;5.364;2023-08-01T14:22:32;9.35;;;2.92;;
69594;SDS011;56800;52.142;5.364;2023-08-01T14:24:59;8.15;;;2.58;;
69594;SDS011;56800;52.142;5.364;2023-08-01T14:27:25;8.60;;;2.60;;
69594;SDS011;56800;52.142;5.364;2023-08-01T14:29:52;9.73;;;3.07;;
69594;SDS011;56800;52.142;5.364;2023-08-01T14:32:19;11.00;;;2.30;;
69594;SDS011;56800;52.142;5.364;2023-08-01T14:34:46;11.27;;;2.65;;
69594;SDS011;56800;52.142;5.364;2023-08-01T14:37:13;12.05;;;2.78;;
69594;SDS011;56800;52.142;5.364;2023-08-01T14:39:39;10.65;;;2.40;;
69594;SDS011;56800;52.142;5.364;2023-08-01T14:42:06;10.97;;;2.60;;
69594;SDS011;56800;52.142;5.364;2023-08-01T14:44:33;10.50;;;2.55;;
69594;SDS011;56800;52.142;5.364;2023-08-01T14:46:59;8.80;;;2.83;;
69594;SDS011;56800;52.142;5.364;2023-08-01T14:49:26;9.38;;;2.33;;